Time;durP1;ratioP1;P1;durP2;ratioP2;P2;SDS_P1;SDS_P2;PMS_P1;PMS_P2;Temp;Humidity;BMP_temperature;BMP_pressure;BME280_temperature;BME280_humidity;BME280_pressure;Samples;Min_cycle;Max_cycle;Signal;HPM_P1;HPM_P2
2022/01/18 00:01:51;;;;;;;;;;;;;;;-0.11;74.13;101383.06;5581259;32;34571;-83
2022/01/18 00:05:14;;;;;;;;;;;;;;;-0.07;74.26;101391.62;5578640;32;35765;-84
2022/01/18 00:08:17;;;;;;;;;;;;;;;0.02;73.48;101391.34;5577624;32;35045;-84
2022/01/18 00:11:23;;;;;;;;;;;;;;;-0.16;74.81;101401.41;5577689;32;35371;-84
2022/01/18 00:14:40;;;;;;;;;;;;;;;-0.12;76.31;101407.38;5577239;32;34352;-83
2022/01/18 00:17:53;;;;;;;;;;;;;;;-0.15;75.23;101402.25;5577774;32;34080;-83
2022/01/18 00:21:14;;;;;;;;;;;;;;;-0.07;75.15;101396.81;5578176;32;34315;-84
2022/01/18 00:24:25;;;;;;;;;;;;;;;-0.14;75.52;101403.97;5578809;32;34639;-84
2022/01/18 00:27:29;;;;;;;;;;;;;;;-0.14;75.47;101413.53;5579924;32;34647;-84
2022/01/18 00:33:52;;;;;;;;;;;;;;;-0.20;75.72;101424.97;5575730;32;34206;-84
2022/01/18 00:37:00;;;;;;;;;;;;;;;-0.24;75.86;101423.34;5576369;32;36782;-83
2022/01/18 00:40:04;;;;;;;;;;;;;;;-0.29;75.73;101435.62;5576061;32;34705;-83
2022/01/18 00:43:06;;;;;;;;;;;;;;;-0.27;76.02;101441.62;5577099;32;35791;-83
2022/01/18 00:46:11;;;;;;;;;;;;;;;-0.28;75.93;101451.19;5575591;32;35440;-83
2022/01/18 00:49:14;;;;;;;;;;;;;;;-0.35;76.14;101457.47;5582880;32;34546;-82
2022/01/18 00:52:19;;;;;;;;;;;;;;;-0.39;76.86;101461.88;5575883;31;33681;-82
2022/01/18 00:55:22;;;;;;;;;;;;;;;-0.44;77.10;101463.75;5575594;32;34675;-83
2022/01/18 00:58:24;;;;;;;;;;;;;;;-0.57;77.85;101484.03;5575465;32;34473;-83
2022/01/18 01:01:31;;;;;;;;;;;;;;;-0.59;78.11;101479.75;5575980;32;34405;-84
2022/01/18 01:04:38;;;;;;;;;;;;;;;-0.66;78.01;101479.94;5577254;32;35072;-84
2022/01/18 01:07:44;;;;;;;;;;;;;;;-0.69;78.68;101495.59;5577391;32;34997;-84
2022/01/18 01:11:06;;;;;;;;;;;;;;;-0.74;79.03;101489.69;5577900;32;34212;-83
2022/01/18 01:14:13;;;;;;;;;;;;;;;-0.67;78.80;101499.00;5576847;32;35042;-83
2022/01/18 01:46:52;;;;;;;;;;;;;;;-0.81;80.75;101490.72;5578951;32;34629;-83
2022/01/18 01:49:54;;;;;;;;;;;;;;;-0.83;81.15;101479.50;5584145;32;34074;-84
2022/01/18 01:53:06;;;;;;;;;;;;;;;-0.94;82.30;101475.41;5580683;32;34158;-83
2022/01/18 01:56:08;;;;;;;;;;;;;;;-0.87;82.22;101488.28;5581438;32;35222;-84
2022/01/18 01:59:11;;;;;;;;;;;;;;;-0.80;81.73;101488.09;5585722;32;34507;-83
2022/01/18 02:02:14;;;;;;;;;;;;;;;-0.83;81.96;101482.97;5581356;32;34912;-82
2022/01/18 02:05:21;;;;;;;;;;;;;;;-0.77;82.01;101476.75;5579568;32;35041;-83
2022/01/18 02:08:24;;;;;;;;;;;;;;;-0.86;83.16;101467.44;5579293;32;34058;-82
2022/01/18 02:11:26;;;;;;;;;;;;;;;-0.85;82.66;101452.72;5580168;32;34343;-84
2022/01/18 02:14:32;;;;;;;;;;;;;;;-0.78;81.43;101464.66;5580426;32;34607;-84
2022/01/18 02:24:27;;;;;;;;;;;;;;;-0.81;82.20;101490.72;5584386;32;35088;-84
2022/01/18 02:27:30;;;;;;;;;;;;;;;-0.91;82.91;101494.44;5585638;32;35478;-84
2022/01/18 02:30:32;;;;;;;;;;;;;;;-0.95;83.00;101504.87;5565734;32;35093;-83
2022/01/18 02:33:35;;;;;;;;;;;;;;;-1.03;83.59;101491.25;5578835;32;33973;-84
2022/01/18 02:36:38;;;;;;;;;;;;;;;-1.01;83.58;101494.66;5578815;32;34206;-84
2022/01/18 02:39:42;;;;;;;;;;;;;;;-1.01;83.53;101489.47;5579877;32;34456;-84
2022/01/18 02:42:55;;;;;;;;;;;;;;;-1.02;84.97;101503.34;5579220;32;35668;-84
2022/01/18 02:45:58;;;;;;;;;;;;;;;-1.14;84.85;101498.44;5577335;32;34272;-83
2022/01/18 02:49:01;;;;;;;;;;;;;;;-1.07;84.26;101513.00;5578056;32;34923;-83
2022/01/18 02:52:04;;;;;;;;;;;;;;;-1.12;85.10;101513.09;5578707;32;34896;-83
2022/01/18 02:55:07;;;;;;;;;;;;;;;-1.21;85.42;101517.66;5577945;32;34658;-83
2022/01/18 02:58:10;;;;;;;;;;;;;;;-1.15;85.18;101527.88;5579459;32;34899;-83
2022/01/18 03:04:37;;;;;;;;;;;;;;;-1.20;85.32;101525.41;5579435;32;34902;-83
2022/01/18 03:07:41;;;;;;;;;;;;;;;-1.15;84.93;101527.88;5579497;32;34094;-84
2022/01/18 03:10:43;;;;;;;;;;;;;;;-1.12;85.16;101538.22;5579397;32;34615;-84
2022/01/18 03:13:45;;;;;;;;;;;;;;;-1.12;84.72;101538.22;5578740;32;34327;-84
2022/01/18 03:16:48;;;;;;;;;;;;;;;-1.22;86.01;101542.75;5580106;32;34246;-84
2022/01/18 03:19:51;;;;;;;;;;;;;;;-1.20;86.13;101555.72;5579634;32;35139;-84
2022/01/18 03:22:53;;;;;;;;;;;;;;;-1.19;85.64;101578.22;5581251;32;34598;-84
2022/01/18 03:25:58;;;;;;;;;;;;;;;-1.18;86.09;101582.53;5580834;32;34970;-84
2022/01/18 03:29:01;;;;;;;;;;;;;;;-1.21;86.22;101588.63;5579155;32;34623;-84
2022/01/18 03:32:04;;;;;;;;;;;;;;;-1.31;87.18;101600.97;5577864;32;35279;-83
2022/01/18 03:35:10;;;;;;;;;;;;;;;-1.26;87.31;101593.06;5580151;32;34641;-83
2022/01/18 03:38:13;;;;;;;;;;;;;;;-1.35;88.19;101601.91;5579408;32;34717;-84
2022/01/18 03:41:16;;;;;;;;;;;;;;;-1.35;87.65;101609.69;5579419;32;35372;-83
2022/01/18 03:44:19;;;;;;;;;;;;;;;-1.34;87.73;101605.34;5579578;32;34373;-84
2022/01/18 03:47:21;;;;;;;;;;;;;;;-1.29;87.59;101600.91;5582295;32;34540;-84
2022/01/18 03:50:24;;;;;;;;;;;;;;;-1.32;87.60;101611.38;5581259;32;34188;-84
2022/01/18 03:53:27;;;;;;;;;;;;;;;-1.30;87.62;101618.25;5580657;32;33987;-85
2022/01/18 03:56:32;;;;;;;;;;;;;;;-1.35;87.65;101614.88;5579174;32;35534;-86
2022/01/18 03:59:35;;;;;;;;;;;;;;;-1.31;87.29;101621.75;5580743;32;35448;-83
2022/01/18 04:02:37;;;;;;;;;;;;;;;-1.32;87.91;101630.41;5583284;32;34475;-84
2022/01/18 04:05:40;;;;;;;;;;;;;;;-1.28;87.32;101632.03;5578906;32;34486;-84
2022/01/18 04:08:42;;;;;;;;;;;;;;;-1.29;87.31;101635.53;5578787;32;35540;-84
2022/01/18 04:11:47;;;;;;;;;;;;;;;-1.33;87.50;101636.50;5578909;32;34643;-84
2022/01/18 04:14:49;;;;;;;;;;;;;;;-1.41;88.15;101651.38;5578683;32;34574;-83
2022/01/18 04:18:14;;;;;;;;;;;;;;;-1.56;88.72;101650.78;5581190;32;34459;-84
2022/01/18 04:28:11;;;;;;;;;;;;;;;-1.53;88.49;101652.47;5578636;32;34797;-84
2022/01/18 04:31:14;;;;;;;;;;;;;;;-1.54;88.74;101647.31;5577602;32;34429;-84
2022/01/18 04:34:16;;;;;;;;;;;;;;;-1.65;89.48;101647.50;5579899;32;34805;-84
2022/01/18 04:37:19;;;;;;;;;;;;;;;-1.67;89.37;101650.16;5578985;32;34242;-84
2022/01/18 04:40:27;;;;;;;;;;;;;;;-1.56;89.26;101648.19;5580343;32;34246;-83
2022/01/18 04:48:25;;;;;;;;;;;;;;;-1.52;88.42;101663.72;5581427;32;34989;-84
2022/01/18 04:50:21;;;;;;;;;;;;;;;-1.49;87.96;101674.03;5578783;32;34024;-84
2022/01/18 04:53:31;;;;;;;;;;;;;;;-1.59;88.29;101686.34;5578254;32;34790;-84
2022/01/18 04:59:39;;;;;;;;;;;;;;;-1.50;88.20;101690.47;5578157;32;35132;-84
2022/01/18 05:02:47;;;;;;;;;;;;;;;-1.46;87.48;101689.53;5579156;32;34824;-84
2022/01/18 05:05:54;;;;;;;;;;;;;;;-1.47;87.51;101687.84;5579702;32;34452;-84
2022/01/18 05:09:00;;;;;;;;;;;;;;;-1.54;88.23;101688.84;5578631;32;34173;-84
2022/01/18 05:12:12;;;;;;;;;;;;;;;-1.54;88.08;101696.62;5579118;32;36648;-84
2022/01/18 05:21:36;;;;;;;;;;;;;;;-1.58;88.95;101712.25;5580095;32;34707;-83
2022/01/18 05:24:41;;;;;;;;;;;;;;;-1.76;89.69;101710.00;5579834;32;35145;-84
2022/01/18 05:27:44;;;;;;;;;;;;;;;-1.72;89.90;101714.22;5578419;32;35092;-83
2022/01/18 05:30:46;;;;;;;;;;;;;;;-1.76;91.12;101712.59;5579672;31;35098;-84
2022/01/18 05:33:49;;;;;;;;;;;;;;;-1.88;90.84;101719.72;5583381;32;34984;-85
2022/01/18 05:36:52;;;;;;;;;;;;;;;-1.92;91.70;101723.22;5586181;32;33317;-84
2022/01/18 05:39:55;;;;;;;;;;;;;;;-1.92;91.67;101723.22;5580322;32;35087;-83
2022/01/18 05:42:57;;;;;;;;;;;;;;;-1.78;91.11;101724.72;5578754;32;34605;-84
2022/01/18 05:46:01;;;;;;;;;;;;;;;-1.76;91.24;101743.72;5580763;32;34254;-84
2022/01/18 05:49:03;;;;;;;;;;;;;;;-1.80;91.09;101732.53;5579068;32;34669;-83
2022/01/18 05:52:06;;;;;;;;;;;;;;;-1.88;92.06;101740.47;5578163;32;34595;-83
2022/01/18 05:55:10;;;;;;;;;;;;;;;-1.62;90.84;101739.13;5579155;32;34961;-84
2022/01/18 05:58:13;;;;;;;;;;;;;;;-1.72;91.39;101746.25;5579265;32;35539;-84
2022/01/18 06:01:31;;;;;;;;;;;;;;;-1.68;91.84;101754.81;5579615;32;35111;-84
2022/01/18 06:07:58;;;;;;;;;;;;;;;-1.84;93.11;101774.12;5551997;32;33928;-82
2022/01/18 06:11:01;;;;;;;;;;;;;;;-1.83;93.27;101778.44;5578170;32;34862;-82
2022/01/18 06:14:03;;;;;;;;;;;;;;;-1.89;93.88;101785.44;5582076;31;34375;-82
2022/01/18 06:17:06;;;;;;;;;;;;;;;-1.95;94.46;101785.53;5579080;31;36679;-81
2022/01/18 06:20:08;;;;;;;;;;;;;;;-1.89;94.46;101785.44;5577630;32;35002;-81
2022/01/18 06:23:13;;;;;;;;;;;;;;;-1.91;94.70;101787.19;5577816;32;34441;-82
2022/01/18 06:26:16;;;;;;;;;;;;;;;-1.99;95.92;101783.88;5577362;32;33030;-81
2022/01/18 06:29:20;;;;;;;;;;;;;;;-1.96;95.73;101783.81;5578959;32;34500;-82
2022/01/18 06:32:24;;;;;;;;;;;;;;;-1.99;96.41;101763.13;5578703;32;34493;-83
2022/01/18 06:35:29;;;;;;;;;;;;;;;-1.88;96.30;101755.16;5577224;32;34303;-83
2022/01/18 06:38:32;;;;;;;;;;;;;;;-1.97;97.37;101765.69;5577966;32;34441;-83
2022/01/18 06:41:34;;;;;;;;;;;;;;;-2.00;97.22;101776.97;5577954;32;34090;-83
2022/01/18 06:44:37;;;;;;;;;;;;;;;-2.06;97.93;101777.06;5578824;32;34354;-82
2022/01/18 06:47:48;;;;;;;;;;;;;;;-2.01;98.05;101783.03;5577318;32;34352;-84
2022/01/18 06:50:50;;;;;;;;;;;;;;;-1.90;97.65;101775.94;5577270;32;34566;-84
2022/01/18 06:53:56;;;;;;;;;;;;;;;-1.78;96.71;101787.84;5577523;32;34535;-84
2022/01/18 06:56:58;;;;;;;;;;;;;;;-1.69;96.42;101794.62;5578356;32;34985;-84
2022/01/18 07:00:01;;;;;;;;;;;;;;;-1.69;96.35;101789.44;5578831;32;34419;-84
2022/01/18 07:03:05;;;;;;;;;;;;;;;-1.66;96.72;101786.81;5578089;32;35758;-84
2022/01/18 07:06:09;;;;;;;;;;;;;;;-1.62;96.27;101783.25;5577719;32;34769;-84
2022/01/18 07:09:12;;;;;;;;;;;;;;;-1.51;95.63;101783.09;5577622;32;34487;-84
2022/01/18 07:12:17;;;;;;;;;;;;;;;-1.51;95.74;101785.69;5582072;32;34366;-84
2022/01/18 07:15:20;;;;;;;;;;;;;;;-1.42;95.08;101789.84;5578036;32;35057;-83
2022/01/18 07:18:26;;;;;;;;;;;;;;;-1.39;95.63;101789.78;5576839;32;33989;-83
2022/01/18 07:21:31;;;;;;;;;;;;;;;-1.23;94.46;101773.94;5577549;32;34783;-83
2022/01/18 07:24:40;;;;;;;;;;;;;;;-1.23;94.62;101768.75;5577432;32;34281;-82
2022/01/18 07:27:43;;;;;;;;;;;;;;;-1.20;94.22;101766.09;5577879;32;34698;-84
2022/01/18 07:30:46;;;;;;;;;;;;;;;-1.16;93.85;101791.09;5577714;32;35262;-83
2022/01/18 07:33:49;;;;;;;;;;;;;;;-1.11;93.57;101764.16;5595612;31;34496;-82
2022/01/18 07:36:52;;;;;;;;;;;;;;;-1.08;93.09;101763.25;5594669;31;34091;-83
2022/01/18 07:39:55;;;;;;;;;;;;;;;-1.05;93.21;101773.56;5596920;31;35082;-83
2022/01/18 07:43:00;;;;;;;;;;;;;;;-0.98;92.49;101777.78;5596799;31;34137;-83
2022/01/18 07:46:12;;;;;;;;;;;;;;;-0.93;92.52;101793.28;5596424;31;35389;-83
2022/01/18 07:49:22;;;;;;;;;;;;;;;-1.01;93.17;101800.34;5598383;31;34373;-83
2022/01/18 07:52:26;;;;;;;;;;;;;;;-0.97;92.82;101815.88;5597823;31;34528;-84
2022/01/18 07:55:29;;;;;;;;;;;;;;;-0.91;92.79;101822.69;5597159;31;34450;-83
2022/01/18 07:58:35;;;;;;;;;;;;;;;-0.95;93.18;101834.84;5597350;31;34440;-83
2022/01/18 08:01:38;;;;;;;;;;;;;;;-0.93;93.12;101840.88;5596488;31;35570;-83
2022/01/18 08:04:41;;;;;;;;;;;;;;;-0.98;93.14;101837.53;5596867;31;34638;-83
2022/01/18 08:07:44;;;;;;;;;;;;;;;-0.89;93.14;101846.87;5595909;31;34342;-84
2022/01/18 08:10:46;;;;;;;;;;;;;;;-0.86;92.94;101856.38;5596155;31;34991;-83
2022/01/18 08:13:51;;;;;;;;;;;;;;;-0.87;92.91;101865.88;5596736;31;34580;-83
2022/01/18 08:17:00;;;;;;;;;;;;;;;-0.80;92.65;101872.69;5596596;31;34621;-83
2022/01/18 08:20:05;;;;;;;;;;;;;;;-0.83;92.80;101872.75;5596454;31;34156;-83
2022/01/18 08:23:10;;;;;;;;;;;;;;;-0.78;92.83;101881.31;5596632;31;33888;-84
2022/01/18 08:26:12;;;;;;;;;;;;;;;-0.67;92.07;101893.22;5596965;31;34323;-83
2022/01/18 08:29:15;;;;;;;;;;;;;;;-0.64;91.61;101890.59;5596017;31;36891;-83
2022/01/18 08:32:38;;;;;;;;;;;;;;;-0.52;90.81;101897.31;5596601;31;34931;-83
2022/01/18 08:35:41;;;;;;;;;;;;;;;-0.51;90.70;101904.22;5596483;31;36321;-83
2022/01/18 08:38:45;;;;;;;;;;;;;;;-0.52;90.84;101915.50;5596865;31;34984;-85
2022/01/18 08:41:47;;;;;;;;;;;;;;;-0.52;90.95;101923.31;5597087;31;34599;-83
2022/01/18 08:44:51;;;;;;;;;;;;;;;-0.46;90.60;101912.75;5597068;31;34161;-83
2022/01/18 08:47:56;;;;;;;;;;;;;;;-0.40;90.45;101912.66;5600284;31;34120;-83
2022/01/18 08:50:59;;;;;;;;;;;;;;;-0.42;90.88;101900.56;5601785;31;35527;-84
2022/01/18 08:54:03;;;;;;;;;;;;;;;-0.36;90.72;101918.66;5598856;31;34672;-84
2022/01/18 08:57:09;;;;;;;;;;;;;;;-0.28;90.12;101921.09;5598620;31;35077;-84
2022/01/18 09:00:14;;;;;;;;;;;;;;;-0.27;89.43;101917.59;5598144;31;34737;-83
2022/01/18 09:03:17;;;;;;;;;;;;;;;-0.21;89.85;101933.94;5586048;31;34393;-83
2022/01/18 09:06:24;;;;;;;;;;;;;;;-0.13;89.18;101945.94;5579635;32;34752;-84
2022/01/18 09:09:27;;;;;;;;;;;;;;;-0.05;88.19;101939.66;5580295;31;33835;-83
2022/01/18 09:12:33;;;;;;;;;;;;;;;-0.10;89.29;101936.31;5580313;31;34316;-83
2022/01/18 09:15:36;;;;;;;;;;;;;;;0.07;87.93;101946.38;5579608;32;36621;-83
2022/01/18 09:18:40;;;;;;;;;;;;;;;0.08;88.07;101939.41;5579644;32;34460;-83
2022/01/18 09:21:46;;;;;;;;;;;;;;;0.14;88.07;101944.50;5579289;32;34986;-83
2022/01/18 09:24:55;;;;;;;;;;;;;;;0.21;87.58;101953.88;5580923;32;34416;-83
2022/01/18 09:27:58;;;;;;;;;;;;;;;0.28;86.28;101967.59;5580062;32;36755;-83
2022/01/18 09:31:04;;;;;;;;;;;;;;;0.25;87.36;101955.53;5578377;32;34781;-85
2022/01/18 09:34:08;;;;;;;;;;;;;;;0.39;86.44;101959.56;5578595;32;34727;-84
2022/01/18 09:37:14;;;;;;;;;;;;;;;0.41;86.03;101955.16;5579014;32;35118;-83
2022/01/18 09:40:19;;;;;;;;;;;;;;;0.46;86.31;101966.34;5579351;32;34299;-83
2022/01/18 09:43:22;;;;;;;;;;;;;;;0.62;85.54;101966.84;5577898;32;35115;-83
2022/01/18 09:46:25;;;;;;;;;;;;;;;0.68;85.56;101986.69;5579110;32;34476;-84
2022/01/18 09:49:29;;;;;;;;;;;;;;;0.77;84.85;101971.69;5578983;32;34587;-83
2022/01/18 09:52:31;;;;;;;;;;;;;;;0.79;83.45;101969.03;5578782;32;35396;-83
2022/01/18 09:55:36;;;;;;;;;;;;;;;0.81;83.50;101966.38;5577930;32;34553;-83
2022/01/18 09:58:39;;;;;;;;;;;;;;;0.86;84.24;101973.19;5579327;32;34489;-84
2022/01/18 10:01:41;;;;;;;;;;;;;;;0.99;82.87;101967.69;5577664;32;35193;-84
2022/01/18 10:04:48;;;;;;;;;;;;;;;0.93;83.52;101971.31;5578506;32;34290;-84
2022/01/18 10:07:54;;;;;;;;;;;;;;;0.94;83.40;101972.19;5578072;32;33990;-84
2022/01/18 10:10:59;;;;;;;;;;;;;;;0.99;82.79;101979.00;5577693;32;35427;-86
2022/01/18 10:14:01;;;;;;;;;;;;;;;1.02;82.58;101980.66;5578021;32;34683;-83
2022/01/18 10:17:10;;;;;;;;;;;;;;;1.09;83.03;101987.41;5577685;32;34573;-84
2022/01/18 10:20:21;;;;;;;;;;;;;;;1.17;82.36;101975.06;5578290;32;34016;-84
2022/01/18 10:23:27;;;;;;;;;;;;;;;1.15;82.28;101975.97;5577619;32;34556;-84
2022/01/18 10:26:29;;;;;;;;;;;;;;;1.17;81.66;101980.28;5579696;32;34675;-83
2022/01/18 10:29:37;;;;;;;;;;;;;;;1.50;81.70;101977.69;5576726;32;34676;-83
2022/01/18 10:32:41;;;;;;;;;;;;;;;1.57;80.17;101982.72;5583176;31;34900;-83
2022/01/18 10:36:04;;;;;;;;;;;;;;;1.76;79.74;101962.19;5579557;32;34846;-84
2022/01/18 10:39:09;;;;;;;;;;;;;;;1.67;78.65;101953.75;5564494;32;34342;-83
2022/01/18 10:42:36;;;;;;;;;;;;;;;1.63;78.81;101962.53;5585361;31;35022;-83
2022/01/18 10:45:39;;;;;;;;;;;;;;;1.90;77.49;101954.84;5598301;31;34534;-83
2022/01/18 10:48:47;;;;;;;;;;;;;;;1.80;78.32;101959.44;5596776;31;34654;-83
2022/01/18 10:51:55;;;;;;;;;;;;;;;1.86;77.85;101958.41;5592421;31;35184;-84
2022/01/18 10:55:00;;;;;;;;;;;;;;;1.78;77.79;101960.41;5577456;31;34318;-83
2022/01/18 10:58:11;;;;;;;;;;;;;;;1.75;78.20;101966.53;5578116;32;34342;-83
2022/01/18 11:01:16;;;;;;;;;;;;;;;1.89;77.13;101973.13;5577531;32;34523;-83
2022/01/18 11:04:19;;;;;;;;;;;;;;;1.78;78.13;101976.91;5578090;32;34172;-84
2022/01/18 11:07:23;;;;;;;;;;;;;;;1.75;77.60;101976.97;5576939;32;34217;-83
2022/01/18 11:10:30;;;;;;;;;;;;;;;1.77;77.57;101980.41;5576845;32;34492;-84
2022/01/18 11:14:01;;;;;;;;;;;;;;;1.77;77.02;101977.81;5578236;32;34161;-84
2022/01/18 11:17:23;;;;;;;;;;;;;;;1.76;76.99;101972.63;5576346;32;33690;-84
2022/01/18 11:20:28;;;;;;;;;;;;;;;1.80;76.82;101967.28;5578882;32;34223;-84
2022/01/18 11:23:33;;;;;;;;;;;;;;;1.98;76.96;101972.84;5583293;31;35162;-86
2022/01/18 11:26:38;;;;;;;;;;;;;;;2.04;76.20;101983.13;5582071;31;34660;-84
2022/01/18 11:29:44;;;;;;;;;;;;;;;2.02;76.32;101966.66;5576945;32;34467;-84
2022/01/18 11:32:50;;;;;;;;;;;;;;;1.99;76.49;101948.47;5577036;32;34839;-84
2022/01/18 11:35:57;;;;;;;;;;;;;;;2.21;75.43;101958.25;5578182;32;35310;-85
2022/01/18 11:39:03;;;;;;;;;;;;;;;2.00;75.90;101950.19;5577822;32;35015;-84
2022/01/18 11:42:08;;;;;;;;;;;;;;;2.10;76.23;101964.66;5579215;32;34685;-83
2022/01/18 11:45:25;;;;;;;;;;;;;;;2.08;75.70;101969.09;5576603;32;33697;-86
2022/01/18 11:48:28;;;;;;;;;;;;;;;2.09;75.66;101977.78;5578646;32;34984;-86
2022/01/18 11:51:38;;;;;;;;;;;;;;;2.14;76.08;101986.31;5578109;32;34650;-85
2022/01/18 11:54:45;;;;;;;;;;;;;;;2.13;76.03;101980.25;5579069;32;34387;-86
2022/01/18 11:57:48;;;;;;;;;;;;;;;2.04;75.68;101993.59;5578919;32;34155;-87
2022/01/18 12:00:52;;;;;;;;;;;;;;;2.19;74.92;101994.03;5580557;32;34641;-86
2022/01/18 12:03:55;;;;;;;;;;;;;;;2.09;75.90;101996.91;5581935;32;34397;-86
2022/01/18 12:06:57;;;;;;;;;;;;;;;2.15;75.82;101991.50;5580084;32;34952;-86
2022/01/18 12:10:01;;;;;;;;;;;;;;;2.20;74.88;101987.91;5581504;32;33946;-86
2022/01/18 12:13:12;;;;;;;;;;;;;;;2.17;75.88;101983.63;5580198;32;34726;-86
2022/01/18 12:16:25;;;;;;;;;;;;;;;2.23;75.46;101972.13;5580862;32;34309;-88
2022/01/18 12:19:41;;;;;;;;;;;;;;;2.08;75.65;101971.72;5580003;32;34973;-86
2022/01/18 12:23:00;;;;;;;;;;;;;;;2.10;75.76;101959.44;5579917;32;34508;-85
2022/01/18 12:26:15;;;;;;;;;;;;;;;2.27;75.26;101947.66;5580315;32;34221;-85
2022/01/18 12:32:40;;;;;;;;;;;;;;;2.33;75.25;101957.91;5579042;32;34282;-86
2022/01/18 12:35:47;;;;;;;;;;;;;;;2.32;74.66;101953.56;5579281;32;34948;-85
2022/01/18 12:38:57;;;;;;;;;;;;;;;2.39;74.71;101962.94;5578567;32;34369;-85
2022/01/18 12:42:01;;;;;;;;;;;;;;;2.35;74.85;101979.59;5578970;31;34480;-85
2022/01/18 12:45:22;;;;;;;;;;;;;;;2.29;74.27;101974.59;5576819;32;35081;-85
2022/01/18 12:48:25;;;;;;;;;;;;;;;2.38;74.89;101956.00;5577651;32;34216;-86
2022/01/18 12:51:36;;;;;;;;;;;;;;;2.33;74.02;101968.34;5577201;32;35561;-86
2022/01/18 12:54:40;;;;;;;;;;;;;;;2.30;74.64;101955.41;5578939;32;35249;-87
2022/01/18 12:57:56;;;;;;;;;;;;;;;2.29;74.37;101979.81;5578417;32;34725;-86
2022/01/18 13:00:59;;;;;;;;;;;;;;;2.44;74.12;101979.31;5578162;32;34202;-86
2022/01/18 13:04:01;;;;;;;;;;;;;;;2.46;73.73;101987.97;5576777;32;35535;-85
2022/01/18 13:07:04;;;;;;;;;;;;;;;2.47;73.55;101979.22;5577333;32;34790;-86
2022/01/18 13:10:07;;;;;;;;;;;;;;;2.45;73.72;101967.12;5576548;32;34649;-85
2022/01/18 13:13:13;;;;;;;;;;;;;;;2.49;74.08;101978.34;5578764;32;34049;-85
2022/01/18 13:22:56;;;;;;;;;;;;;;;2.36;74.20;101965.66;5577090;32;34787;-86
2022/01/18 13:23:11;;;;;;;;;;;;;;;2.38;73.57;101961.25;5576731;32;34608;-85
2022/01/18 13:26:14;;;;;;;;;;;;;;;2.43;73.64;101964.53;5576217;32;35166;-88
2022/01/18 13:29:20;;;;;;;;;;;;;;;2.41;74.15;101973.34;5578925;32;35831;-85
2022/01/18 13:32:32;;;;;;;;;;;;;;;2.33;74.42;101963.13;5579001;32;36477;-85
2022/01/18 13:35:36;;;;;;;;;;;;;;;2.20;75.04;101978.31;5576675;31;35146;-86
2022/01/18 13:38:40;;;;;;;;;;;;;;;2.27;74.82;101992.06;5576960;32;35135;-86
2022/01/18 13:41:43;;;;;;;;;;;;;;;2.20;73.89;101993.13;5581588;32;34667;-85
2022/01/18 13:45:07;;;;;;;;;;;;;;;2.28;74.24;101991.16;5582528;32;34656;-86
2022/01/18 13:48:12;;;;;;;;;;;;;;;2.30;74.07;101987.59;5579447;32;33868;-85
2022/01/18 13:51:19;;;;;;;;;;;;;;;2.27;75.38;101992.06;5581444;32;34726;-87
2022/01/18 13:54:23;;;;;;;;;;;;;;;2.26;73.27;102001.62;5579875;32;34123;-85
2022/01/18 13:57:26;;;;;;;;;;;;;;;2.36;73.84;102004.00;5580554;32;33850;-86
2022/01/18 14:00:30;;;;;;;;;;;;;;;2.31;72.88;102018.03;5579339;32;35116;-86
2022/01/18 14:03:34;;;;;;;;;;;;;;;2.43;71.98;102016.78;5579965;32;35245;-86
2022/01/18 14:06:40;;;;;;;;;;;;;;;2.47;71.98;102023.66;5580396;32;35180;-85
2022/01/18 14:09:45;;;;;;;;;;;;;;;2.43;71.09;102022.00;5581104;32;34769;-86
2022/01/18 14:12:47;;;;;;;;;;;;;;;2.36;72.00;102009.22;5580646;32;35322;-86
2022/01/18 14:15:50;;;;;;;;;;;;;;;2.33;71.84;102030.19;5581194;32;34448;-86
2022/01/18 14:19:00;;;;;;;;;;;;;;;2.26;71.42;102019.06;5580029;32;36597;-86
2022/01/18 14:22:12;;;;;;;;;;;;;;;2.33;70.68;102014.53;5579098;32;34900;-87
2022/01/18 14:25:15;;;;;;;;;;;;;;;2.18;71.49;102010.63;5579571;32;35461;-86
2022/01/18 14:28:18;;;;;;;;;;;;;;;2.11;71.87;102000.31;5579833;32;35625;-86
2022/01/18 14:31:21;;;;;;;;;;;;;;;2.08;71.64;102000.44;5580932;31;34357;-86
2022/01/18 14:34:33;;;;;;;;;;;;;;;2.19;71.32;102001.88;5582299;31;34596;-86
2022/01/18 14:37:50;;;;;;;;;;;;;;;2.14;71.59;101997.62;5580807;32;34973;-86
2022/01/18 14:40:54;;;;;;;;;;;;;;;2.04;72.35;102003.16;5580648;31;35427;-86
2022/01/18 14:44:08;;;;;;;;;;;;;;;1.94;72.47;102007.81;5601059;31;34844;-86
2022/01/18 14:47:33;;;;;;;;;;;;;;;1.94;72.28;102002.59;5599188;31;33952;-84
2022/01/18 14:50:37;;;;;;;;;;;;;;;1.93;72.56;102003.47;5596959;31;34608;-85
2022/01/18 14:53:40;;;;;;;;;;;;;;;1.86;72.60;102000.19;5596604;31;34652;-85
2022/01/18 14:56:43;;;;;;;;;;;;;;;1.75;73.76;102008.28;5600015;31;34628;-86
2022/01/18 14:59:46;;;;;;;;;;;;;;;1.54;74.75;102005.38;5600450;31;34390;-85
2022/01/18 15:02:49;;;;;;;;;;;;;;;1.64;73.99;102019.03;5598513;31;34827;-85
2022/01/18 15:06:00;;;;;;;;;;;;;;;1.51;74.76;102010.69;5596097;31;34094;-85
2022/01/18 15:09:05;;;;;;;;;;;;;;;1.53;74.47;102029.75;5597401;31;34341;-85
2022/01/18 15:12:09;;;;;;;;;;;;;;;1.58;74.35;102036.59;5601041;31;34391;-87
2022/01/18 15:15:13;;;;;;;;;;;;;;;1.49;74.24;102020.31;5600987;31;34636;-87
2022/01/18 15:18:16;;;;;;;;;;;;;;;1.42;75.49;102003.09;5599665;31;34925;-85
2022/01/18 15:21:18;;;;;;;;;;;;;;;1.46;75.37;102001.28;5600989;31;35145;-86
2022/01/18 15:24:22;;;;;;;;;;;;;;;1.36;75.30;101998.03;5599391;31;34534;-86
2022/01/18 15:27:28;;;;;;;;;;;;;;;1.32;75.36;102022.47;5600192;31;34578;-86
2022/01/18 15:30:32;;;;;;;;;;;;;;;1.16;76.07;102032.44;5590811;31;34741;-86
2022/01/18 15:33:35;;;;;;;;;;;;;;;1.07;76.95;102041.34;5580434;32;35143;-86
2022/01/18 15:36:39;;;;;;;;;;;;;;;1.15;76.62;102062.00;5580452;32;34504;-84
2022/01/18 15:39:43;;;;;;;;;;;;;;;1.01;77.79;102062.34;5580857;32;33890;-86
2022/01/18 15:42:46;;;;;;;;;;;;;;;1.00;77.82;102068.44;5581499;32;35026;-85
2022/01/18 15:45:48;;;;;;;;;;;;;;;0.94;78.14;102064.25;5580526;32;34997;-84
2022/01/18 15:48:51;;;;;;;;;;;;;;;0.82;79.17;102065.38;5581880;32;34576;-84
2022/01/18 15:51:54;;;;;;;;;;;;;;;0.79;79.51;102060.25;5579439;32;34289;-84
2022/01/18 15:54:58;;;;;;;;;;;;;;;0.80;79.50;102069.78;5580922;32;35057;-84
2022/01/18 15:58:02;;;;;;;;;;;;;;;0.80;79.87;102075.00;5579811;32;34272;-84
2022/01/18 16:01:05;;;;;;;;;;;;;;;0.86;79.62;102087.03;5577802;32;34385;-84
2022/01/18 16:04:09;;;;;;;;;;;;;;;0.76;80.34;102104.59;5578160;32;34798;-84
2022/01/18 16:07:11;;;;;;;;;;;;;;;0.45;81.58;102100.03;5580891;31;34465;-86
2022/01/18 16:10:14;;;;;;;;;;;;;;;0.60;81.19;102102.34;5579557;32;34491;-84
2022/01/18 16:13:17;;;;;;;;;;;;;;;0.42;82.83;102084.47;5580217;32;35563;-84
2022/01/18 16:16:19;;;;;;;;;;;;;;;0.41;82.49;102077.53;5581020;32;33764;-84
2022/01/18 16:19:28;;;;;;;;;;;;;;;0.51;82.05;102081.66;5579947;32;34925;-85
2022/01/18 16:22:33;;;;;;;;;;;;;;;0.61;81.86;102091.03;5580196;32;34178;-85
2022/01/18 16:25:36;;;;;;;;;;;;;;;0.39;84.29;102085.41;5581928;32;34392;-87
2022/01/18 16:28:39;;;;;;;;;;;;;;;0.25;85.43;102093.50;5582076;32;34929;-86
2022/01/18 16:31:43;;;;;;;;;;;;;;;0.16;86.66;102104.09;5579217;32;34816;-86
2022/01/18 16:34:49;;;;;;;;;;;;;;;0.29;86.64;102100.34;5578389;32;34286;-84
2022/01/18 16:37:59;;;;;;;;;;;;;;;0.23;87.21;102100.47;5566152;32;34963;-83
2022/01/18 16:41:02;;;;;;;;;;;;;;;0.05;88.57;102116.47;5579579;32;34897;-83
2022/01/18 16:44:04;;;;;;;;;;;;;;;0.11;89.00;102111.97;5581088;32;35394;-84
2022/01/18 16:47:10;;;;;;;;;;;;;;;0.13;89.30;102120.59;5580228;32;34109;-86
2022/01/18 16:50:13;;;;;;;;;;;;;;;0.15;89.40;102121.44;5578214;32;35299;-86
2022/01/18 16:53:21;;;;;;;;;;;;;;;0.18;89.44;102106.66;5580394;32;34316;-86
2022/01/18 16:56:23;;;;;;;;;;;;;;;0.22;88.97;102101.37;5579863;32;34551;-87
2022/01/18 16:59:29;;;;;;;;;;;;;;;0.27;89.13;102112.56;5578517;32;34707;-86
2022/01/18 17:02:32;;;;;;;;;;;;;;;0.29;88.38;102115.97;5578675;32;34281;-86
2022/01/18 17:05:35;;;;;;;;;;;;;;;0.07;89.54;102125.06;5578942;32;35121;-86
2022/01/18 17:08:37;;;;;;;;;;;;;;;0.10;89.04;102135.44;5578970;32;34944;-86
2022/01/18 17:11:42;;;;;;;;;;;;;;;0.01;88.74;102126.03;5577918;31;33709;-88